createdAt,value
2018-12-31T00:00:00.170Z,3.69
2018-12-31T00:00:04.377Z,3.69
2018-12-31T00:00:10.306Z,3.68
2018-12-31T00:00:14.607Z,3.69
2018-12-31T00:00:18.905Z,3.68
2018-12-31T00:00:23.212Z,3.68
2018-12-31T00:00:27.511Z,3.69
2018-12-31T00:00:31.707Z,3.69
2018-12-31T00:00:35.999Z,3.69
2018-12-31T00:00:40.299Z,3.68
2018-12-31T00:00:44.590Z,3.69
2018-12-31T00:00:48.878Z,3.69
2018-12-31T00:00:53.168Z,3.68
2018-12-31T00:00:57.401Z,3.68
2018-12-31T00:01:01.742Z,3.68
2018-12-31T00:01:06.040Z,3.69
2018-12-31T00:01:10.338Z,3.68
2018-12-31T00:01:14.644Z,3.68
2018-12-31T00:01:18.941Z,3.69
2018-12-31T00:01:23.303Z,3.69
2018-12-31T00:01:27.500Z,3.69
2018-12-31T00:01:31.794Z,3.68
2018-12-31T00:01:36.087Z,3.69
2018-12-31T00:01:40.394Z,3.69
2018-12-31T00:01:44.410Z,3.69
2018-12-31T00:01:48.704Z,3.7
2018-12-31T00:01:53.003Z,3.69
2018-12-31T00:01:57.300Z,3.69
2018-12-31T00:02:01.399Z,3.69
2018-12-31T00:02:05.850Z,3.69
2018-12-31T00:02:10.112Z,3.7
2018-12-31T00:02:14.399Z,3.7
2018-12-31T00:02:18.590Z,3.7
2018-12-31T00:02:22.879Z,3.71
2018-12-31T00:02:27.166Z,3.7
2018-12-31T00:02:31.460Z,3.7
2018-12-31T00:02:35.655Z,3.7
2018-12-31T00:02:39.950Z,3.69
2018-12-31T00:02:44.148Z,3.69
2018-12-31T00:02:48.435Z,3.7
2018-12-31T00:02:52.643Z,3.71
2018-12-31T00:02:56.936Z,3.7
2018-12-31T00:03:01.237Z,3.71
2018-12-31T00:03:05.530Z,3.71
2018-12-31T00:03:09.819Z,3.71
2018-12-31T00:03:14.114Z,3.7
2018-12-31T00:03:18.312Z,3.7
2018-12-31T00:03:22.601Z,3.71
2018-12-31T00:03:26.908Z,3.7
2018-12-31T00:03:31.220Z,3.7
2018-12-31T00:03:35.506Z,3.7
2018-12-31T00:03:39.707Z,3.71
2018-12-31T00:03:44.015Z,3.71
2018-12-31T00:03:48.305Z,3.7
2018-12-31T00:03:52.608Z,3.71
2018-12-31T00:03:56.907Z,3.71
2018-12-31T00:04:01.200Z,3.7
2018-12-31T00:04:05.599Z,3.71
2018-12-31T00:04:09.929Z,3.71
2018-12-31T00:04:14.120Z,3.7
2018-12-31T00:04:18.406Z,3.71
2018-12-31T00:04:22.633Z,3.71
2018-12-31T00:04:26.826Z,3.71
2018-12-31T00:04:31.118Z,3.71
2018-12-31T00:04:35.500Z,3.71
2018-12-31T00:04:39.798Z,3.71
2018-12-31T00:04:44.093Z,3.72
2018-12-31T00:04:48.390Z,3.72
2018-12-31T00:04:52.708Z,3.71
2018-12-31T00:04:57.002Z,3.72
2018-12-31T00:05:01.335Z,3.71
2018-12-31T00:05:05.636Z,3.72
2018-12-31T00:05:09.935Z,3.72
2018-12-31T00:05:14.222Z,3.72
2018-12-31T00:05:18.518Z,3.71
2018-12-31T00:05:22.802Z,3.72
2018-12-31T00:05:27.097Z,3.71
2018-12-31T00:05:31.390Z,3.71
2018-12-31T00:05:35.590Z,3.71
2018-12-31T00:05:39.883Z,3.71
2018-12-31T00:05:44.185Z,3.7
2018-12-31T00:05:48.402Z,3.7
2018-12-31T00:05:54.133Z,3.71
2018-12-31T00:05:58.335Z,3.71
2018-12-31T00:06:02.630Z,3.71
2018-12-31T00:06:06.927Z,3.71
2018-12-31T00:06:11.265Z,3.71
2018-12-31T00:06:15.565Z,3.7
2018-12-31T00:06:19.946Z,3.71
2018-12-31T00:06:24.232Z,3.71
2018-12-31T00:06:28.433Z,3.71
2018-12-31T00:06:32.637Z,3.71
2018-12-31T00:06:36.935Z,3.71
2018-12-31T00:06:41.231Z,3.71
2018-12-31T00:06:45.427Z,3.71
2018-12-31T00:06:49.719Z,3.71
2018-12-31T00:06:54.018Z,3.71
2018-12-31T00:06:58.316Z,3.7
2018-12-31T00:07:02.415Z,3.7
2018-12-31T00:07:06.617Z,3.7
2018-12-31T00:07:10.914Z,3.71
2018-12-31T00:07:15.199Z,3.7
2018-12-31T00:07:19.572Z,3.7
2018-12-31T00:07:23.868Z,3.7
2018-12-31T00:07:28.235Z,3.69
2018-12-31T00:07:32.527Z,3.69
2018-12-31T00:07:36.824Z,3.7
2018-12-31T00:07:41.121Z,3.7
2018-12-31T00:07:45.418Z,3.69
2018-12-31T00:07:49.723Z,3.7
2018-12-31T00:07:54.013Z,3.7
2018-12-31T00:07:58.311Z,3.7
2018-12-31T00:08:02.601Z,3.69
2018-12-31T00:08:06.900Z,3.7
2018-12-31T00:08:11.116Z,3.69
2018-12-31T00:08:15.410Z,3.69
2018-12-31T00:08:19.728Z,3.69
2018-12-31T00:08:24.019Z,3.69
2018-12-31T00:08:28.315Z,3.7
2018-12-31T00:08:32.607Z,3.7
2018-12-31T00:08:36.894Z,3.69
2018-12-31T00:08:41.288Z,3.7
2018-12-31T00:08:45.482Z,3.69
2018-12-31T00:08:49.853Z,3.7
2018-12-31T00:08:54.055Z,3.69
2018-12-31T00:08:58.349Z,3.68
2018-12-31T00:09:02.647Z,3.69
2018-12-31T00:09:06.944Z,3.69
2018-12-31T00:09:11.155Z,3.69
2018-12-31T00:09:15.465Z,3.69
2018-12-31T00:09:19.751Z,3.69
2018-12-31T00:09:24.038Z,3.7
2018-12-31T00:09:28.332Z,3.69
2018-12-31T00:09:32.623Z,3.71
2018-12-31T00:09:36.821Z,3.7
2018-12-31T00:09:41.115Z,3.69
2018-12-31T00:09:45.409Z,3.7
2018-12-31T00:09:49.703Z,3.7
2018-12-31T00:09:53.989Z,3.71
2018-12-31T00:09:58.280Z,3.7
2018-12-31T00:10:02.744Z,3.71
2018-12-31T00:10:07.033Z,3.71
2018-12-31T00:10:11.332Z,3.71
2018-12-31T00:10:15.636Z,3.7
2018-12-31T00:10:19.928Z,3.7
2018-12-31T00:10:24.223Z,3.71
2018-12-31T00:10:28.521Z,3.71
2018-12-31T00:10:32.818Z,3.7
2018-12-31T00:10:37.115Z,3.71
2018-12-31T00:10:41.405Z,3.71
2018-12-31T00:10:45.709Z,3.7
2018-12-31T00:10:49.996Z,3.71
2018-12-31T00:10:54.281Z,3.72
2018-12-31T00:10:58.575Z,3.72
2018-12-31T00:11:02.863Z,3.72
2018-12-31T00:11:07.160Z,3.72
2018-12-31T00:11:11.455Z,3.72
2018-12-31T00:11:15.656Z,3.72
2018-12-31T00:11:19.950Z,3.73
2018-12-31T00:11:24.155Z,3.72
2018-12-31T00:11:28.453Z,3.73
2018-12-31T00:11:32.818Z,3.73
2018-12-31T00:11:37.111Z,3.73
2018-12-31T00:11:41.401Z,3.73
2018-12-31T00:11:45.705Z,3.74
2018-12-31T00:11:50.004Z,3.73
2018-12-31T00:11:54.297Z,3.74
2018-12-31T00:11:58.586Z,3.73
2018-12-31T00:12:02.911Z,3.74
2018-12-31T00:12:07.269Z,3.75
2018-12-31T00:12:11.565Z,3.74
2018-12-31T00:12:15.852Z,3.74
2018-12-31T00:12:20.043Z,3.74
2018-12-31T00:12:24.422Z,3.75
2018-12-31T00:12:28.726Z,3.74
2018-12-31T00:12:33.015Z,3.75
2018-12-31T00:12:37.300Z,3.74
2018-12-31T00:12:41.587Z,3.74
2018-12-31T00:12:45.892Z,3.74
2018-12-31T00:12:50.180Z,3.75
2018-12-31T00:12:54.507Z,3.74
2018-12-31T00:12:58.799Z,3.74
2018-12-31T00:13:03.092Z,3.75
2018-12-31T00:13:07.396Z,3.74
2018-12-31T00:13:11.684Z,3.74
2018-12-31T00:13:15.872Z,3.74
2018-12-31T00:13:20.160Z,3.74
2018-12-31T00:13:24.460Z,3.74
2018-12-31T00:13:28.660Z,3.74
2018-12-31T00:13:32.922Z,3.74
2018-12-31T00:13:37.219Z,3.76
2018-12-31T00:13:41.521Z,3.74
2018-12-31T00:13:45.815Z,3.74
2018-12-31T00:13:50.104Z,3.75
2018-12-31T00:13:54.397Z,3.75
2018-12-31T00:13:58.689Z,3.74
2018-12-31T00:14:02.981Z,3.74
2018-12-31T00:14:07.268Z,3.75
2018-12-31T00:14:11.559Z,3.75
2018-12-31T00:14:15.772Z,3.73
2018-12-31T00:14:20.068Z,3.75
2018-12-31T00:14:24.368Z,3.75
2018-12-31T00:14:28.671Z,3.74
2018-12-31T00:14:32.958Z,3.74
2018-12-31T00:14:37.242Z,3.74
2018-12-31T00:14:41.530Z,3.74
2018-12-31T00:14:45.820Z,3.74
2018-12-31T00:14:50.118Z,3.75
2018-12-31T00:14:54.421Z,3.75
2018-12-31T00:14:58.717Z,3.74
2018-12-31T00:15:03.107Z,3.75
2018-12-31T00:15:07.401Z,3.74
2018-12-31T00:15:11.695Z,3.74
2018-12-31T00:15:15.993Z,3.75
2018-12-31T00:15:20.280Z,3.75
2018-12-31T00:15:24.576Z,3.75
2018-12-31T00:15:28.887Z,3.75
2018-12-31T00:15:34.966Z,3.75
2018-12-31T00:15:39.264Z,3.75
2018-12-31T00:15:43.639Z,3.75
2018-12-31T00:15:47.930Z,3.74
2018-12-31T00:15:52.227Z,3.75
2018-12-31T00:15:56.524Z,3.74
2018-12-31T00:16:00.824Z,3.74
2018-12-31T00:16:05.125Z,3.74
2018-12-31T00:16:09.427Z,3.74
2018-12-31T00:16:13.726Z,3.74
2018-12-31T00:16:18.019Z,3.75
2018-12-31T00:16:22.314Z,3.74
2018-12-31T00:16:26.610Z,3.75
2018-12-31T00:16:30.900Z,3.74
2018-12-31T00:16:35.204Z,3.74
2018-12-31T00:16:39.512Z,3.74
2018-12-31T00:16:43.806Z,3.74
2018-12-31T00:16:48.104Z,3.74
2018-12-31T00:16:52.394Z,3.74
2018-12-31T00:16:56.692Z,3.73
2018-12-31T00:17:00.981Z,3.73
2018-12-31T00:17:05.425Z,3.73
2018-12-31T00:17:09.712Z,3.73
2018-12-31T00:17:14.009Z,3.73
2018-12-31T00:17:18.299Z,3.72
2018-12-31T00:17:22.600Z,3.73
2018-12-31T00:17:26.898Z,3.72
2018-12-31T00:17:31.197Z,3.72
2018-12-31T00:17:35.491Z,3.73
2018-12-31T00:17:39.792Z,3.73
2018-12-31T00:17:44.083Z,3.72
2018-12-31T00:17:48.386Z,3.72
2018-12-31T00:17:52.682Z,3.72
2018-12-31T00:17:56.877Z,3.73
2018-12-31T00:18:01.180Z,3.72
2018-12-31T00:18:05.382Z,3.72
2018-12-31T00:18:09.672Z,3.71
2018-12-31T00:18:13.973Z,3.72
2018-12-31T00:18:18.275Z,3.72
2018-12-31T00:18:22.570Z,3.72
2018-12-31T00:18:26.862Z,3.72
2018-12-31T00:18:31.159Z,3.71
2018-12-31T00:18:35.452Z,3.72
2018-12-31T00:18:39.821Z,3.72
2018-12-31T00:18:44.025Z,3.72
2018-12-31T00:18:48.248Z,3.72
2018-12-31T00:18:52.543Z,3.72
2018-12-31T00:18:56.846Z,3.73
2018-12-31T00:19:01.136Z,3.73
2018-12-31T00:19:05.477Z,3.72
2018-12-31T00:19:09.771Z,3.71
2018-12-31T00:19:14.061Z,3.73
2018-12-31T00:19:18.436Z,3.73
2018-12-31T00:19:22.729Z,3.73
2018-12-31T00:19:27.028Z,3.73
2018-12-31T00:19:31.317Z,3.73
2018-12-31T00:19:35.607Z,3.73
2018-12-31T00:19:39.895Z,3.73
2018-12-31T00:19:44.185Z,3.73
2018-12-31T00:19:48.380Z,3.74
2018-12-31T00:19:52.672Z,3.74
2018-12-31T00:19:56.869Z,3.74
2018-12-31T00:20:01.162Z,3.74
2018-12-31T00:20:05.659Z,3.74
2018-12-31T00:20:09.955Z,3.73
2018-12-31T00:20:14.245Z,3.73
2018-12-31T00:20:18.533Z,3.73
2018-12-31T00:20:22.833Z,3.73
2018-12-31T00:20:27.120Z,3.72
2018-12-31T00:20:31.417Z,3.73
2018-12-31T00:20:35.705Z,3.72
2018-12-31T00:20:39.999Z,3.73
2018-12-31T00:20:44.289Z,3.73
2018-12-31T00:20:48.577Z,3.72
2018-12-31T00:20:52.870Z,3.72
2018-12-31T00:20:57.074Z,3.74
2018-12-31T00:21:01.446Z,3.72
2018-12-31T00:21:05.838Z,3.74
2018-12-31T00:21:10.130Z,3.73
2018-12-31T00:21:14.427Z,3.73
2018-12-31T00:21:18.723Z,3.73
2018-12-31T00:21:23.016Z,3.73
2018-12-31T00:21:27.316Z,3.73
2018-12-31T00:21:31.606Z,3.73
2018-12-31T00:21:35.894Z,3.73
2018-12-31T00:21:40.191Z,3.72
2018-12-31T00:21:44.482Z,3.73
2018-12-31T00:21:48.772Z,3.72
2018-12-31T00:21:53.061Z,3.73
2018-12-31T00:21:57.357Z,3.73
2018-12-31T00:22:01.651Z,3.73
2018-12-31T00:22:05.987Z,3.74
2018-12-31T00:22:10.180Z,3.73
2018-12-31T00:22:14.480Z,3.73
2018-12-31T00:22:18.675Z,3.73
2018-12-31T00:22:23.018Z,3.73
2018-12-31T00:22:27.220Z,3.74
2018-12-31T00:22:31.510Z,3.74
2018-12-31T00:22:35.810Z,3.73
2018-12-31T00:22:40.155Z,3.73
2018-12-31T00:22:44.457Z,3.72
2018-12-31T00:22:48.752Z,3.72
2018-12-31T00:22:53.125Z,3.72
2018-12-31T00:22:57.427Z,3.73
2018-12-31T00:23:01.730Z,3.72
2018-12-31T00:23:06.022Z,3.72
2018-12-31T00:23:10.312Z,3.73
2018-12-31T00:23:14.617Z,3.73
2018-12-31T00:23:18.905Z,3.72
2018-12-31T00:23:23.208Z,3.72
2018-12-31T00:23:27.499Z,3.73
2018-12-31T00:23:31.792Z,3.73
2018-12-31T00:23:35.983Z,3.72
2018-12-31T00:23:40.363Z,3.73
2018-12-31T00:23:44.666Z,3.73
2018-12-31T00:23:49.048Z,3.72
2018-12-31T00:23:53.340Z,3.72
2018-12-31T00:23:57.626Z,3.71
2018-12-31T00:24:01.977Z,3.72
2018-12-31T00:24:06.267Z,3.71
2018-12-31T00:24:10.562Z,3.72
2018-12-31T00:24:14.854Z,3.71
2018-12-31T00:24:19.153Z,3.72
2018-12-31T00:24:23.448Z,3.72
2018-12-31T00:24:27.741Z,3.72
2018-12-31T00:24:32.034Z,3.73
2018-12-31T00:24:36.320Z,3.72
2018-12-31T00:24:40.606Z,3.72
2018-12-31T00:24:44.897Z,3.72
2018-12-31T00:24:49.256Z,3.71
2018-12-31T00:24:53.445Z,3.71
2018-12-31T00:24:57.731Z,3.71
2018-12-31T00:25:02.018Z,3.72
2018-12-31T00:25:06.486Z,3.71
2018-12-31T00:25:10.789Z,3.72
2018-12-31T00:25:15.081Z,3.72
2018-12-31T00:25:19.371Z,3.71
2018-12-31T00:25:23.672Z,3.71
2018-12-31T00:25:27.958Z,3.72
2018-12-31T00:25:32.250Z,3.72
2018-12-31T00:25:36.441Z,3.72
2018-12-31T00:25:40.729Z,3.72
2018-12-31T00:25:44.935Z,3.72
2018-12-31T00:25:49.225Z,3.72
2018-12-31T00:25:53.517Z,3.71
2018-12-31T00:25:57.803Z,3.71
2018-12-31T00:26:02.096Z,3.72
2018-12-31T00:26:06.392Z,3.72
2018-12-31T00:26:10.681Z,3.72
2018-12-31T00:26:14.876Z,3.72
2018-12-31T00:26:19.165Z,3.72
2018-12-31T00:26:23.452Z,3.72
2018-12-31T00:26:27.755Z,3.72
2018-12-31T00:26:32.053Z,3.72
2018-12-31T00:26:36.343Z,3.72
2018-12-31T00:26:40.633Z,3.72
2018-12-31T00:26:44.823Z,3.72
2018-12-31T00:26:49.114Z,3.73
2018-12-31T00:26:53.414Z,3.74
2018-12-31T00:26:57.706Z,3.73
2018-12-31T00:27:01.994Z,3.71
2018-12-31T00:27:06.286Z,3.72
2018-12-31T00:27:12.334Z,3.72
2018-12-31T00:27:16.624Z,3.72
2018-12-31T00:27:20.915Z,3.72
2018-12-31T00:27:25.205Z,3.73
2018-12-31T00:27:29.499Z,3.74
2018-12-31T00:27:33.799Z,3.73
2018-12-31T00:27:38.152Z,3.73
2018-12-31T00:27:42.452Z,3.73
2018-12-31T00:27:46.746Z,3.74
2018-12-31T00:27:51.046Z,3.74
2018-12-31T00:27:55.336Z,3.73
2018-12-31T00:27:59.626Z,3.74
2018-12-31T00:28:03.920Z,3.74
2018-12-31T00:28:08.214Z,3.74
2018-12-31T00:28:12.417Z,3.74
2018-12-31T00:28:16.710Z,3.74
2018-12-31T00:28:20.910Z,3.74
2018-12-31T00:28:25.200Z,3.75
2018-12-31T00:28:29.504Z,3.74
2018-12-31T00:28:33.802Z,3.75
2018-12-31T00:28:38.097Z,3.74
2018-12-31T00:28:42.396Z,3.74
2018-12-31T00:28:46.689Z,3.75
2018-12-31T00:28:50.984Z,3.74
2018-12-31T00:28:55.186Z,3.74
2018-12-31T00:28:59.481Z,3.74
2018-12-31T00:29:03.776Z,3.74
2018-12-31T00:29:08.074Z,3.75
2018-12-31T00:29:12.375Z,3.74
2018-12-31T00:29:16.663Z,3.74
2018-12-31T00:29:21.054Z,3.75
2018-12-31T00:29:25.355Z,3.74
2018-12-31T00:29:29.691Z,3.75
2018-12-31T00:29:33.983Z,3.75
2018-12-31T00:29:38.274Z,3.75
2018-12-31T00:29:42.469Z,3.75
2018-12-31T00:29:46.660Z,3.75
2018-12-31T00:29:50.968Z,3.75
2018-12-31T00:29:55.167Z,3.75
2018-12-31T00:29:59.475Z,3.75
2018-12-31T00:30:03.782Z,3.76
2018-12-31T00:30:08.074Z,3.75
2018-12-31T00:30:12.374Z,3.75
2018-12-31T00:30:16.667Z,3.75
2018-12-31T00:30:20.967Z,3.75
2018-12-31T00:30:25.253Z,3.75
2018-12-31T00:30:29.447Z,3.75
2018-12-31T00:30:33.666Z,3.75
2018-12-31T00:30:37.971Z,3.75
2018-12-31T00:30:42.268Z,3.75
2018-12-31T00:30:46.561Z,3.74
2018-12-31T00:30:50.847Z,3.74
2018-12-31T00:30:55.142Z,3.74
2018-12-31T00:30:59.433Z,3.74
2018-12-31T00:31:03.723Z,3.74
2018-12-31T00:31:08.009Z,3.75
2018-12-31T00:31:12.302Z,3.74
2018-12-31T00:31:16.597Z,3.75
2018-12-31T00:31:20.792Z,3.74
2018-12-31T00:31:25.173Z,3.74
2018-12-31T00:31:29.474Z,3.75
2018-12-31T00:31:33.766Z,3.75
2018-12-31T00:31:38.055Z,3.74
2018-12-31T00:31:42.348Z,3.74
2018-12-31T00:31:46.644Z,3.75
2018-12-31T00:31:50.939Z,3.75
2018-12-31T00:31:55.241Z,3.74
2018-12-31T00:31:59.538Z,3.75
2018-12-31T00:32:03.730Z,3.75
2018-12-31T00:32:08.018Z,3.75
2018-12-31T00:32:12.309Z,3.75
2018-12-31T00:32:16.405Z,3.74
2018-12-31T00:32:20.702Z,3.74
2018-12-31T00:32:25.007Z,3.75
2018-12-31T00:32:29.299Z,3.75
2018-12-31T00:32:33.591Z,3.75
2018-12-31T00:32:37.784Z,3.75
2018-12-31T00:32:42.086Z,3.76
2018-12-31T00:32:46.372Z,3.75
2018-12-31T00:32:50.674Z,3.76
2018-12-31T00:32:55.004Z,3.75
2018-12-31T00:32:59.295Z,3.76
2018-12-31T00:33:03.590Z,3.76
2018-12-31T00:33:07.882Z,3.76
2018-12-31T00:33:12.174Z,3.76
2018-12-31T00:33:16.476Z,3.76
2018-12-31T00:33:20.769Z,3.77
2018-12-31T00:33:25.071Z,3.76
2018-12-31T00:33:29.366Z,3.77
2018-12-31T00:33:33.651Z,3.77
2018-12-31T00:33:37.959Z,3.77
2018-12-31T00:33:42.255Z,3.78
2018-12-31T00:33:46.453Z,3.77
2018-12-31T00:33:50.745Z,3.78
2018-12-31T00:33:55.035Z,3.79
2018-12-31T00:33:59.334Z,3.78
2018-12-31T00:34:03.627Z,3.77
2018-12-31T00:34:07.917Z,3.78
2018-12-31T00:34:12.209Z,3.78
2018-12-31T00:34:16.397Z,3.79
2018-12-31T00:34:20.590Z,3.78
2018-12-31T00:34:24.885Z,3.78
2018-12-31T00:34:29.185Z,3.79
2018-12-31T00:34:33.381Z,3.78
2018-12-31T00:34:37.674Z,3.79
2018-12-31T00:34:41.964Z,3.79
2018-12-31T00:34:46.263Z,3.79
2018-12-31T00:34:50.555Z,3.79
2018-12-31T00:34:54.845Z,3.79
2018-12-31T00:34:59.139Z,3.8
2018-12-31T00:35:03.408Z,3.8
2018-12-31T00:35:07.711Z,3.8
2018-12-31T00:35:12.002Z,3.81
2018-12-31T00:35:16.304Z,3.8
2018-12-31T00:35:20.666Z,3.8
2018-12-31T00:35:24.958Z,3.81
2018-12-31T00:35:29.156Z,3.8
2018-12-31T00:35:33.447Z,3.81
2018-12-31T00:35:37.739Z,3.81
2018-12-31T00:35:42.029Z,3.8
2018-12-31T00:35:46.322Z,3.81
2018-12-31T00:35:50.620Z,3.82
2018-12-31T00:35:54.913Z,3.82
2018-12-31T00:35:59.212Z,3.82
2018-12-31T00:36:03.501Z,3.82
2018-12-31T00:36:07.794Z,3.83
2018-12-31T00:36:11.992Z,3.82
2018-12-31T00:36:16.285Z,3.82
2018-12-31T00:36:20.578Z,3.83
2018-12-31T00:36:24.864Z,3.83
2018-12-31T00:36:29.157Z,3.83
2018-12-31T00:36:33.357Z,3.82
2018-12-31T00:36:37.666Z,3.82
2018-12-31T00:36:41.953Z,3.82
2018-12-31T00:36:46.246Z,3.83
2018-12-31T00:36:50.542Z,3.83
2018-12-31T00:36:54.848Z,3.83
2018-12-31T00:36:59.218Z,3.83
2018-12-31T00:37:03.505Z,3.83
2018-12-31T00:37:07.698Z,3.83
2018-12-31T00:37:11.987Z,3.83
2018-12-31T00:37:16.285Z,3.84
2018-12-31T00:37:20.573Z,3.83
2018-12-31T00:37:24.876Z,3.84
2018-12-31T00:37:29.169Z,3.83
2018-12-31T00:37:33.362Z,3.82
2018-12-31T00:37:37.656Z,3.82
2018-12-31T00:37:41.854Z,3.83
2018-12-31T00:37:46.149Z,3.83
2018-12-31T00:37:50.450Z,3.84
2018-12-31T00:37:54.651Z,3.83
2018-12-31T00:37:58.847Z,3.83
2018-12-31T00:38:03.142Z,3.84
2018-12-31T00:38:07.453Z,3.84
2018-12-31T00:38:11.750Z,3.84
2018-12-31T00:38:15.940Z,3.84
2018-12-31T00:38:20.141Z,3.84
2018-12-31T00:38:24.447Z,3.84
2018-12-31T00:38:28.778Z,3.84
2018-12-31T00:38:33.074Z,3.83
2018-12-31T00:38:37.365Z,3.84
2018-12-31T00:38:41.653Z,3.83
2018-12-31T00:38:45.948Z,3.84
2018-12-31T00:38:50.144Z,3.84
2018-12-31T00:38:54.433Z,3.85
2018-12-31T00:38:58.619Z,3.85
2018-12-31T00:39:02.912Z,3.84
2018-12-31T00:39:07.210Z,3.84
2018-12-31T00:39:11.410Z,3.84
2018-12-31T00:39:15.686Z,3.85
2018-12-31T00:39:19.986Z,3.85
2018-12-31T00:39:24.315Z,3.85
2018-12-31T00:39:28.613Z,3.84
2018-12-31T00:39:32.904Z,3.85
2018-12-31T00:39:37.191Z,3.85
2018-12-31T00:39:41.489Z,3.85
2018-12-31T00:39:45.778Z,3.85
2018-12-31T00:39:50.068Z,3.86
2018-12-31T00:39:54.364Z,3.85
2018-12-31T00:39:58.555Z,3.85
2018-12-31T00:40:04.708Z,3.86
2018-12-31T00:40:09.003Z,3.85
2018-12-31T00:40:13.288Z,3.86
2018-12-31T00:40:17.580Z,3.86
2018-12-31T00:40:21.869Z,3.86
2018-12-31T00:40:26.162Z,3.86
2018-12-31T00:40:30.356Z,3.85
2018-12-31T00:40:34.649Z,3.86
2018-12-31T00:40:38.931Z,3.86
2018-12-31T00:40:43.302Z,3.86
2018-12-31T00:40:47.593Z,3.86
2018-12-31T00:40:51.886Z,3.86
2018-12-31T00:40:56.191Z,3.85
2018-12-31T00:41:00.480Z,3.87
2018-12-31T00:41:04.681Z,3.87
2018-12-31T00:41:08.978Z,3.86
2018-12-31T00:41:13.275Z,3.86
2018-12-31T00:41:17.568Z,3.87
2018-12-31T00:41:21.772Z,3.86
2018-12-31T00:41:26.068Z,3.86
2018-12-31T00:41:30.362Z,3.86
2018-12-31T00:41:34.654Z,3.86
2018-12-31T00:41:38.945Z,3.86
2018-12-31T00:41:43.139Z,3.85
2018-12-31T00:41:47.428Z,3.86
2018-12-31T00:41:51.720Z,3.85
2018-12-31T00:41:56.091Z,3.85
2018-12-31T00:42:00.385Z,3.85
2018-12-31T00:42:04.842Z,3.85
2018-12-31T00:42:09.133Z,3.85
2018-12-31T00:42:13.329Z,3.85
2018-12-31T00:42:17.526Z,3.84
2018-12-31T00:42:21.824Z,3.85
2018-12-31T00:42:26.135Z,3.86
2018-12-31T00:42:30.424Z,3.84
2018-12-31T00:42:34.717Z,3.85
2018-12-31T00:42:39.009Z,3.85
2018-12-31T00:42:43.301Z,3.84
2018-12-31T00:42:47.595Z,3.84
2018-12-31T00:42:59.883Z,3.84
2018-12-31T00:43:04.176Z,3.85
2018-12-31T00:43:08.470Z,3.86
2018-12-31T00:43:12.758Z,3.84
2018-12-31T00:43:17.052Z,3.85
2018-12-31T00:43:21.347Z,3.84
2018-12-31T00:43:25.641Z,3.85
2018-12-31T00:43:29.938Z,3.85
2018-12-31T00:43:34.226Z,3.85
2018-12-31T00:43:38.523Z,3.85
2018-12-31T00:43:42.811Z,3.85
2018-12-31T00:43:47.103Z,3.86
2018-12-31T00:43:51.395Z,3.84
2018-12-31T00:43:55.695Z,3.85
2018-12-31T00:43:59.982Z,3.84
2018-12-31T00:44:04.180Z,3.86
2018-12-31T00:44:08.379Z,3.86
2018-12-31T00:44:12.671Z,3.86
2018-12-31T00:44:16.967Z,3.85
2018-12-31T00:44:21.263Z,3.86
2018-12-31T00:44:25.562Z,3.86
2018-12-31T00:44:29.849Z,3.86
2018-12-31T00:44:34.148Z,3.86
2018-12-31T00:44:38.344Z,3.86
2018-12-31T00:44:42.632Z,3.87
2018-12-31T00:44:47.010Z,3.86
2018-12-31T00:44:51.305Z,3.87
2018-12-31T00:44:55.611Z,3.87
2018-12-31T00:44:59.813Z,3.87
2018-12-31T00:45:04.112Z,3.87
2018-12-31T00:45:08.408Z,3.87
2018-12-31T00:45:12.602Z,3.87
2018-12-31T00:45:16.803Z,3.86
2018-12-31T00:45:20.995Z,3.86
2018-12-31T00:45:25.280Z,3.87
2018-12-31T00:45:29.639Z,3.87
2018-12-31T00:45:33.930Z,3.86
2018-12-31T00:45:38.221Z,3.86
2018-12-31T00:45:42.521Z,3.85
2018-12-31T00:45:46.822Z,3.85
2018-12-31T00:45:51.109Z,3.85
2018-12-31T00:45:55.404Z,3.85
2018-12-31T00:45:59.703Z,3.85
2018-12-31T00:46:03.993Z,3.84
2018-12-31T00:46:08.288Z,3.85
2018-12-31T00:46:12.479Z,3.85
2018-12-31T00:46:16.785Z,3.85
2018-12-31T00:46:21.078Z,3.86
2018-12-31T00:46:25.371Z,3.85
2018-12-31T00:46:29.658Z,3.85
2018-12-31T00:46:33.948Z,3.85
2018-12-31T00:46:38.158Z,3.85
2018-12-31T00:46:42.450Z,3.85
2018-12-31T00:46:46.738Z,3.85
2018-12-31T00:46:51.030Z,3.85
2018-12-31T00:46:55.327Z,3.85
2018-12-31T00:46:59.620Z,3.85
2018-12-31T00:47:03.820Z,3.84
2018-12-31T00:47:08.110Z,3.85
2018-12-31T00:47:12.407Z,3.84
2018-12-31T00:47:16.700Z,3.86
2018-12-31T00:47:20.988Z,3.85
2018-12-31T00:47:25.294Z,3.85
2018-12-31T00:47:29.600Z,3.85
2018-12-31T00:47:33.890Z,3.85
2018-12-31T00:47:38.187Z,3.85
2018-12-31T00:47:42.483Z,3.86
2018-12-31T00:47:46.772Z,3.85
2018-12-31T00:47:51.064Z,3.86
2018-12-31T00:47:55.355Z,3.85
2018-12-31T00:47:59.652Z,3.85
2018-12-31T00:48:03.945Z,3.85
2018-12-31T00:48:08.136Z,3.86
2018-12-31T00:48:12.426Z,3.85
2018-12-31T00:48:16.719Z,3.85
2018-12-31T00:48:21.015Z,3.85
2018-12-31T00:48:25.318Z,3.86
2018-12-31T00:48:29.608Z,3.85
2018-12-31T00:48:33.899Z,3.85
2018-12-31T00:48:38.202Z,3.86
2018-12-31T00:48:42.490Z,3.86
2018-12-31T00:48:46.688Z,3.85
2018-12-31T00:48:50.979Z,3.86
2018-12-31T00:48:55.272Z,3.86
2018-12-31T00:48:59.583Z,3.85
2018-12-31T00:49:03.982Z,3.85
2018-12-31T00:49:08.277Z,3.86
2018-12-31T00:49:12.570Z,3.86
2018-12-31T00:49:16.865Z,3.86
2018-12-31T00:49:21.063Z,3.86
2018-12-31T00:49:25.262Z,3.86
2018-12-31T00:49:29.553Z,3.86
2018-12-31T00:49:33.931Z,3.85
2018-12-31T00:49:38.224Z,3.86
2018-12-31T00:49:42.518Z,3.85
2018-12-31T00:49:46.815Z,3.85
2018-12-31T00:49:51.007Z,3.86
2018-12-31T00:49:55.202Z,3.86
2018-12-31T00:49:59.398Z,3.86
2018-12-31T00:50:03.821Z,3.86
2018-12-31T00:50:08.116Z,3.86
2018-12-31T00:50:12.407Z,3.85
2018-12-31T00:50:16.598Z,3.85
2018-12-31T00:50:20.889Z,3.86
2018-12-31T00:50:26.931Z,3.85
2018-12-31T00:50:31.323Z,3.85
2018-12-31T00:50:35.528Z,3.85
2018-12-31T00:50:39.819Z,3.83
2018-12-31T00:50:44.124Z,3.84
2018-12-31T00:50:48.320Z,3.84
2018-12-31T00:50:52.610Z,3.84
2018-12-31T00:50:56.809Z,3.83
2018-12-31T00:51:01.113Z,3.84
2018-12-31T00:51:05.561Z,3.83
2018-12-31T00:51:09.872Z,3.83
2018-12-31T00:51:14.167Z,3.84
2018-12-31T00:51:18.467Z,3.83
2018-12-31T00:51:22.767Z,3.84
2018-12-31T00:51:27.056Z,3.83
2018-12-31T00:51:31.356Z,3.83
2018-12-31T00:51:35.757Z,3.84
2018-12-31T00:51:40.063Z,3.84
2018-12-31T00:51:44.436Z,3.83
2018-12-31T00:51:48.735Z,3.83
2018-12-31T00:51:53.100Z,3.84
2018-12-31T00:51:57.098Z,3.84
2018-12-31T00:52:01.399Z,3.84
2018-12-31T00:52:05.756Z,3.84
2018-12-31T00:52:10.106Z,3.84
2018-12-31T00:52:14.414Z,3.84
2018-12-31T00:52:18.707Z,3.84
2018-12-31T00:52:23.030Z,3.84
2018-12-31T00:52:27.315Z,3.84
2018-12-31T00:52:31.608Z,3.84
2018-12-31T00:52:35.800Z,3.84
2018-12-31T00:52:39.996Z,3.84
2018-12-31T00:52:44.288Z,3.85
2018-12-31T00:52:48.585Z,3.84
2018-12-31T00:52:52.880Z,3.84
2018-12-31T00:52:57.182Z,3.85
2018-12-31T00:53:01.380Z,3.84
2018-12-31T00:53:05.730Z,3.84
2018-12-31T00:53:10.023Z,3.84
2018-12-31T00:53:14.319Z,3.84
2018-12-31T00:53:18.612Z,3.84
2018-12-31T00:53:23.008Z,3.84
2018-12-31T00:53:27.222Z,3.84
2018-12-31T00:53:31.519Z,3.84
2018-12-31T00:53:35.807Z,3.84
2018-12-31T00:53:40.098Z,3.84
2018-12-31T00:53:44.296Z,3.84
2018-12-31T00:53:48.587Z,3.84
2018-12-31T00:53:52.934Z,3.84
2018-12-31T00:53:57.131Z,3.84
2018-12-31T00:54:01.426Z,3.84
2018-12-31T00:54:05.869Z,3.84
2018-12-31T00:54:10.173Z,3.84
2018-12-31T00:54:14.487Z,3.84
2018-12-31T00:54:18.849Z,3.84
2018-12-31T00:54:23.140Z,3.83
2018-12-31T00:54:27.441Z,3.84
2018-12-31T00:54:31.724Z,3.84
2018-12-31T00:54:36.107Z,3.84
2018-12-31T00:54:40.316Z,3.84
2018-12-31T00:54:44.615Z,3.84
2018-12-31T00:54:48.914Z,3.85
2018-12-31T00:54:53.110Z,3.83
2018-12-31T00:54:57.304Z,3.84
2018-12-31T00:55:01.813Z,3.84
2018-12-31T00:55:06.110Z,3.84
2018-12-31T00:55:10.409Z,3.82
2018-12-31T00:55:14.704Z,3.83
2018-12-31T00:55:19.005Z,3.84
2018-12-31T00:55:23.208Z,3.83
2018-12-31T00:55:27.538Z,3.83
2018-12-31T00:55:31.842Z,3.83
2018-12-31T00:55:37.830Z,3.82
2018-12-31T00:55:42.124Z,3.83
2018-12-31T00:55:46.413Z,3.82
2018-12-31T00:55:50.713Z,3.83
2018-12-31T00:55:55.019Z,3.82
2018-12-31T00:55:59.316Z,3.83
2018-12-31T00:56:03.603Z,3.83
2018-12-31T00:56:07.890Z,3.83
2018-12-31T00:56:12.186Z,3.83
2018-12-31T00:56:16.474Z,3.82
2018-12-31T00:56:20.775Z,3.82
2018-12-31T00:56:25.070Z,3.83
2018-12-31T00:56:29.364Z,3.83
2018-12-31T00:56:33.664Z,3.82
2018-12-31T00:56:37.959Z,3.82
2018-12-31T00:56:42.247Z,3.82
2018-12-31T00:56:46.546Z,3.82
2018-12-31T00:56:50.847Z,3.83
2018-12-31T00:56:55.146Z,3.82
2018-12-31T00:56:59.444Z,3.82
2018-12-31T00:57:03.746Z,3.83
2018-12-31T00:57:08.045Z,3.82
2018-12-31T00:57:12.341Z,3.82
2018-12-31T00:57:16.640Z,3.82
2018-12-31T00:57:20.931Z,3.82
2018-12-31T00:57:25.232Z,3.81
2018-12-31T00:57:29.435Z,3.82